Terminal Aerodrome Forecast
Issued by NWS Albany, NY

Home | Current Version | Previous Version | Text Only | Print | Product List | Glossary On
Versions: 1 2 3 4 5 6 7 8 9 10 11 12 13 14 15 16 17 18 19
000
FTUS41 KALY 242333
TAFPOU
TAF
KPOU 242333Z 2500/2524 08005KT P6SM VCSH BKN025
     FM250600 00000KT P6SM BKN025
     FM251100 VRB03KT P6SM BKN010
     FM251300 VRB03KT P6SM VCSH BKN020 PROB30 2515/2516 4SM -SHRA
      OVC007
     FM251800 36006KT P6SM SCT020 OVC050=

USA.gov is the U.S. government's official web portal to all federal, state and local government web resources and services.